createdAt,value
2023-02-11T00:00:32.804Z,32.97
2023-02-11T00:01:32.836Z,33.04
2023-02-11T00:02:33.008Z,32.83
2023-02-11T00:03:32.935Z,32.83
2023-02-11T00:04:33.172Z,32.73
2023-02-11T00:05:32.765Z,32.68
2023-02-11T00:06:32.761Z,33.15
2023-02-11T00:07:32.802Z,33.14
2023-02-11T00:09:54.677Z,33.75
2023-02-11T00:12:27.339Z,34.38
2023-02-11T00:14:48.644Z,34.27
2023-02-11T00:37:42.488Z,34.15
2023-02-11T00:38:42.343Z,34.28
2023-02-11T01:07:55.657Z,35.55
2023-02-11T01:08:55.663Z,35.69
2023-02-11T01:09:55.742Z,35.79
2023-02-11T01:10:55.546Z,35.81
2023-02-11T01:11:54.517Z,35.97
2023-02-11T01:12:54.754Z,36.06
2023-02-11T01:13:54.755Z,35.77
2023-02-11T01:14:55.787Z,35.71
2023-02-11T01:15:55.258Z,35.55
2023-02-11T01:16:54.735Z,35.55
2023-02-11T01:17:54.715Z,35.41
2023-02-11T01:18:54.602Z,35.33
2023-02-11T01:21:15.196Z,35.27
2023-02-11T01:31:02.757Z,34.52
2023-02-11T01:32:02.081Z,34.47
2023-02-11T01:33:02.002Z,34.59
2023-02-11T01:34:02.111Z,34.57
2023-02-11T01:35:02.764Z,34.48
2023-02-11T01:36:02.095Z,34.88
2023-02-11T01:37:01.906Z,34.74
2023-02-11T01:38:01.933Z,34.74
2023-02-11T01:39:01.928Z,34.93
2023-02-11T01:40:01.950Z,35.17
2023-02-11T01:41:01.950Z,35.25
2023-02-11T01:42:01.948Z,35.12
2023-02-11T01:44:01.850Z,35.08
2023-02-11T01:52:33.398Z,34.48
2023-02-11T01:53:33.221Z,34.44
2023-02-11T01:54:32.860Z,34.46
2023-02-11T01:55:32.149Z,34.38
2023-02-11T01:57:52.664Z,34.63
2023-02-11T01:58:52.299Z,34.90
2023-02-11T01:59:52.567Z,34.60
2023-02-11T02:00:52.142Z,34.93
2023-02-11T02:01:52.256Z,35.17
2023-02-11T02:02:52.116Z,35.08
2023-02-11T02:03:52.222Z,34.89
2023-02-11T02:04:52.113Z,35.17
2023-02-11T02:05:52.523Z,35.45
2023-02-11T02:06:52.145Z,35.44
2023-02-11T02:07:52.082Z,35.67
2023-02-11T02:08:52.103Z,35.64
2023-02-11T04:02:36.237Z,36.96
2023-02-11T04:07:30.533Z,36.57
2023-02-11T04:11:22.354Z,36.20
2023-02-11T04:12:37.678Z,36.02
2023-02-11T04:18:43.706Z,36.43
2023-02-11T04:19:43.031Z,36.38
2023-02-11T04:20:43.166Z,36.37
2023-02-11T04:21:43.264Z,36.21
2023-02-11T04:22:43.182Z,36.49
2023-02-11T04:27:11.022Z,36.77
2023-02-11T04:29:36.609Z,36.93
2023-02-11T04:34:25.147Z,36.85
2023-02-11T04:38:01.984Z,36.92
2023-02-11T04:39:01.662Z,37.03
2023-02-11T04:40:01.744Z,37.44
2023-02-11T04:42:22.207Z,36.77
2023-02-11T04:43:22.828Z,36.38
2023-02-11T04:45:51.261Z,36.36
2023-02-11T04:48:05.269Z,36.60
2023-02-11T04:55:57.514Z,36.56
2023-02-11T04:56:55.249Z,36.93
2023-02-11T04:59:10.719Z,37.46
2023-02-11T05:00:10.643Z,37.20
2023-02-11T05:01:11.371Z,37.09
2023-02-11T05:02:10.468Z,36.87
2023-02-11T05:03:10.570Z,37.08
2023-02-11T05:04:10.669Z,37.45
2023-02-11T05:05:10.438Z,36.97
2023-02-11T05:06:10.469Z,37.85
2023-02-11T05:07:10.471Z,37.67
2023-02-11T05:08:10.467Z,37.27
2023-02-11T05:09:10.461Z,37.07
2023-02-11T05:10:10.541Z,37.26
2023-02-11T05:11:11.492Z,37.15
2023-02-11T05:12:26.266Z,37.60
2023-02-11T05:13:10.485Z,37.75
2023-02-11T05:14:10.436Z,37.70
2023-02-11T05:15:10.489Z,38.00
2023-02-11T05:16:11.002Z,38.05
2023-02-11T05:17:10.603Z,37.83
2023-02-11T05:18:10.397Z,37.64
2023-02-11T05:19:10.414Z,37.44
2023-02-11T05:20:10.418Z,37.50
2023-02-11T05:21:10.414Z,37.24
2023-02-11T05:22:10.355Z,37.46
2023-02-11T05:23:10.339Z,37.56
2023-02-11T05:24:10.506Z,37.38
2023-02-11T05:25:10.336Z,37.56
2023-02-11T05:26:10.339Z,37.38
2023-02-11T05:27:10.363Z,37.37
2023-02-11T05:28:10.330Z,37.20
2023-02-11T05:29:10.306Z,37.20
2023-02-11T05:30:10.286Z,37.23
2023-02-11T05:31:10.396Z,37.14
2023-02-11T05:32:10.295Z,37.70
2023-02-11T05:33:10.373Z,37.71
2023-02-11T05:34:10.287Z,37.45
2023-02-11T05:35:10.302Z,37.31
2023-02-11T05:36:10.243Z,37.34
2023-02-11T05:37:10.271Z,37.76
2023-02-11T05:38:10.268Z,37.68
2023-02-11T05:39:10.263Z,38.20
2023-02-11T05:40:10.254Z,37.79
2023-02-11T05:41:10.362Z,37.39
2023-02-11T05:42:10.392Z,37.90
2023-02-11T05:43:12.390Z,37.50
2023-02-11T05:44:13.007Z,37.93
2023-02-11T05:45:13.027Z,37.69
2023-02-11T05:49:01.712Z,37.61
2023-02-11T05:53:00.473Z,38.10
2023-02-11T06:01:10.453Z,37.19
2023-02-11T06:10:10.374Z,37.85
2023-02-11T06:19:10.882Z,37.20
2023-02-11T06:20:10.758Z,37.09
2023-02-11T06:21:10.684Z,37.11
2023-02-11T06:22:10.685Z,36.90
2023-02-11T06:23:10.612Z,36.72
2023-02-11T06:24:10.560Z,36.69
2023-02-11T06:25:10.572Z,36.85
2023-02-11T06:26:10.584Z,36.98
2023-02-11T06:27:10.583Z,36.76
2023-02-11T06:28:10.702Z,36.83
2023-02-11T06:29:10.529Z,36.95
2023-02-11T06:30:10.522Z,37.12
2023-02-11T06:31:10.680Z,36.81
2023-02-11T06:32:28.182Z,36.75
2023-02-11T06:33:11.558Z,36.46
2023-02-11T06:34:10.530Z,36.78
2023-02-11T06:35:12.159Z,36.74
2023-02-11T06:36:10.506Z,36.59
2023-02-11T06:37:10.555Z,36.49
2023-02-11T06:38:10.535Z,36.18
2023-02-11T06:39:10.515Z,36.54
2023-02-11T06:40:10.497Z,36.56
2023-02-11T06:41:10.463Z,36.31
2023-02-11T06:42:10.491Z,36.42
2023-02-11T06:43:10.491Z,36.46
2023-02-11T06:44:10.508Z,36.33
2023-02-11T06:45:10.453Z,36.22
2023-02-11T06:46:10.500Z,36.26
2023-02-11T06:47:10.458Z,36.15
2023-02-11T06:48:10.508Z,36.21
2023-02-11T06:49:10.467Z,36.43
2023-02-11T06:50:10.566Z,36.45
2023-02-11T06:51:10.558Z,36.09
2023-02-11T06:52:10.559Z,36.43
2023-02-11T06:53:10.546Z,36.49
2023-02-11T06:54:10.606Z,36.10
2023-02-11T06:55:10.680Z,36.05
2023-02-11T06:56:10.698Z,36.21
2023-02-11T06:57:10.799Z,35.93
2023-02-11T06:58:10.834Z,35.80
2023-02-11T06:59:10.885Z,35.90
2023-02-11T07:00:10.925Z,35.84
2023-02-11T07:01:10.986Z,35.75
2023-02-11T07:02:11.143Z,35.54
2023-02-11T07:03:11.224Z,35.70
2023-02-11T07:04:11.221Z,35.73
2023-02-11T07:05:11.174Z,36.25
2023-02-11T07:06:11.212Z,36.44
2023-02-11T07:07:11.343Z,36.17
2023-02-11T07:08:11.449Z,36.15
2023-02-11T07:09:11.444Z,36.19
2023-02-11T07:10:11.516Z,36.01
2023-02-11T07:11:11.649Z,35.66
2023-02-11T07:12:11.633Z,35.47
2023-02-11T07:13:11.745Z,35.69
2023-02-11T07:14:11.865Z,36.00
2023-02-11T07:15:11.645Z,35.74
2023-02-11T07:16:11.882Z,35.99
2023-02-11T07:36:12.629Z,32.44
2023-02-11T07:41:12.619Z,32.70
2023-02-11T07:42:12.708Z,32.94
2023-02-11T07:44:12.664Z,32.88
2023-02-11T07:45:12.627Z,33.41
2023-02-11T07:46:12.703Z,33.29
2023-02-11T07:47:12.757Z,33.22
2023-02-11T07:48:12.720Z,33.26
2023-02-11T07:49:12.727Z,33.56
2023-02-11T07:50:12.744Z,33.37
2023-02-11T07:51:12.737Z,33.37
2023-02-11T07:52:13.305Z,33.81
2023-02-11T07:53:12.854Z,33.54
2023-02-11T07:54:12.773Z,33.96
2023-02-11T07:55:12.805Z,33.43
2023-02-11T07:56:12.802Z,33.18
2023-02-11T07:57:12.800Z,32.90
2023-02-11T07:58:12.800Z,32.92
2023-02-11T07:59:12.802Z,32.70
2023-02-11T08:00:13.355Z,33.65
2023-02-11T08:01:12.843Z,33.35
2023-02-11T08:02:12.873Z,33.14
2023-02-11T08:03:12.825Z,33.09
2023-02-11T08:04:12.868Z,33.05
2023-02-11T08:05:12.839Z,33.17
2023-02-11T08:06:12.876Z,33.18
2023-02-11T08:07:12.852Z,33.00
2023-02-11T08:08:12.860Z,33.07
2023-02-11T08:09:12.897Z,32.94
2023-02-11T08:10:13.004Z,32.82
2023-02-11T08:11:12.874Z,32.71
2023-02-11T08:12:13.292Z,32.80
2023-02-11T08:13:13.018Z,33.23
2023-02-11T08:14:13.095Z,33.15
2023-02-11T08:15:13.095Z,32.94
2023-02-11T08:16:13.780Z,33.06
2023-02-11T09:14:07.811Z,31.03
2023-02-11T09:15:07.607Z,30.84
2023-02-11T09:16:07.558Z,30.66
2023-02-11T09:17:07.636Z,30.45
2023-02-11T09:18:07.567Z,30.34
2023-02-11T09:19:07.581Z,30.52
2023-02-11T09:20:10.637Z,30.03
2023-02-11T09:21:07.576Z,30.16
2023-02-11T09:22:07.518Z,29.87
2023-02-11T09:23:07.515Z,29.91
2023-02-11T09:24:07.545Z,30.18
2023-02-11T09:25:07.497Z,30.20
2023-02-11T09:26:09.193Z,30.22
2023-02-11T09:27:07.545Z,30.24
2023-02-11T09:33:13.133Z,30.37
2023-02-11T09:50:53.452Z,30.60
2023-02-11T09:51:53.730Z,29.97
2023-02-11T09:52:52.289Z,29.97
2023-02-11T09:53:51.812Z,30.18
2023-02-11T09:54:51.974Z,30.56
2023-02-11T09:57:26.442Z,30.56
2023-02-11T09:58:12.756Z,30.15
2023-02-11T09:59:12.275Z,29.93
2023-02-11T10:00:11.668Z,29.73
2023-02-11T10:01:11.734Z,29.09
2023-02-11T10:02:11.835Z,29.44
2023-02-11T10:03:11.832Z,29.10
2023-02-11T10:04:11.998Z,28.98
2023-02-11T10:05:12.043Z,28.90
2023-02-11T10:06:11.996Z,28.62
2023-02-11T10:07:12.270Z,29.30
2023-02-11T10:08:12.007Z,29.09
2023-02-11T10:09:12.076Z,29.15
2023-02-11T10:10:12.250Z,28.91
2023-02-11T10:11:22.697Z,28.82
2023-02-11T10:12:13.217Z,28.38
2023-02-11T10:13:13.298Z,28.07
2023-02-11T10:14:12.991Z,27.83
2023-02-11T10:15:11.999Z,27.45
2023-02-11T10:16:12.137Z,27.11
2023-02-11T10:17:12.013Z,27.15
2023-02-11T10:18:12.009Z,27.30
2023-02-11T10:19:11.957Z,27.26
2023-02-11T10:20:12.047Z,27.74
2023-02-11T10:21:12.214Z,27.55
2023-02-11T10:22:11.972Z,27.72
2023-02-11T10:23:12.012Z,27.54
2023-02-11T10:24:12.007Z,27.30
2023-02-11T10:25:12.009Z,26.57
2023-02-11T10:26:12.034Z,26.06
2023-02-11T10:27:12.052Z,25.95
2023-02-11T10:28:12.219Z,25.69
2023-02-11T10:29:12.101Z,25.44
2023-02-11T10:30:12.207Z,24.88
2023-02-11T10:31:12.312Z,24.35
2023-02-11T10:32:12.305Z,24.71
2023-02-11T10:33:12.339Z,24.32
2023-02-11T10:34:12.493Z,24.39
2023-02-11T10:35:12.420Z,24.33
2023-02-11T10:36:12.556Z,24.66
2023-02-11T10:37:12.601Z,24.52
2023-02-11T10:38:12.538Z,24.52
2023-02-11T10:39:12.588Z,24.41
2023-02-11T10:40:12.727Z,25.35
2023-02-11T10:41:13.759Z,25.01
2023-02-11T10:51:14.634Z,25.68
2023-02-11T10:52:13.519Z,25.86
2023-02-11T10:53:13.214Z,25.54
2023-02-11T10:54:13.888Z,25.43
2023-02-11T10:55:13.698Z,25.13
2023-02-11T10:56:13.824Z,25.17
2023-02-11T10:57:13.996Z,25.54
2023-02-11T10:58:13.663Z,26.49
2023-02-11T10:59:13.700Z,26.25
2023-02-11T11:00:13.696Z,25.84
2023-02-11T11:01:24.016Z,25.62
2023-02-11T11:02:14.783Z,25.68
2023-02-11T11:03:13.642Z,25.75
2023-02-11T11:04:13.801Z,25.79
2023-02-11T11:05:13.688Z,26.26
2023-02-11T11:06:13.880Z,25.89
2023-02-11T11:07:13.652Z,25.44
2023-02-11T11:08:13.660Z,25.20
2023-02-11T11:09:13.687Z,24.95
2023-02-11T11:10:13.561Z,24.85
2023-02-11T11:11:15.017Z,25.03
2023-02-11T11:12:13.954Z,25.07
2023-02-11T11:13:13.606Z,24.98
2023-02-11T11:14:13.536Z,24.94
2023-02-11T11:15:13.964Z,24.58
2023-02-11T11:16:13.779Z,24.46
2023-02-11T11:17:13.558Z,24.70
2023-02-11T13:07:59.020Z,21.63
2023-02-11T13:12:58.665Z,21.42
2023-02-11T13:15:58.677Z,21.10
2023-02-11T13:17:58.512Z,21.56
2023-02-11T13:18:58.803Z,21.50
2023-02-11T13:19:58.688Z,21.15
2023-02-11T13:20:58.519Z,21.77
2023-02-11T13:21:58.524Z,22.08
2023-02-11T13:22:58.532Z,21.83
2023-02-11T13:23:58.930Z,21.76
2023-02-11T13:24:58.520Z,21.71
2023-02-11T13:25:58.888Z,21.89
2023-02-11T13:26:58.729Z,22.07
2023-02-11T13:27:58.812Z,21.89
2023-02-11T13:28:58.774Z,22.26
2023-02-11T13:29:58.904Z,22.76
2023-02-11T13:30:59.026Z,22.44
2023-02-11T13:31:59.072Z,22.16
2023-02-11T13:32:59.110Z,21.96
2023-02-11T13:34:59.168Z,21.00
2023-02-11T13:35:59.104Z,21.18
2023-02-11T13:36:58.883Z,21.12
2023-02-11T13:37:59.059Z,21.25
2023-02-11T13:38:58.935Z,21.05
2023-02-11T13:39:59.140Z,21.08
2023-02-11T13:40:59.038Z,21.14
2023-02-11T13:43:19.470Z,21.03
2023-02-11T14:11:58.666Z,20.65
2023-02-11T14:12:58.357Z,21.89
2023-02-11T14:13:58.371Z,22.15
2023-02-11T14:14:59.245Z,21.90
2023-02-11T14:15:58.297Z,21.33
2023-02-11T14:39:24.822Z,19.81
2023-02-11T15:29:11.546Z,21.99
2023-02-11T15:31:34.579Z,21.23
2023-02-11T15:32:31.154Z,21.23
2023-02-11T15:33:30.806Z,21.42
2023-02-11T15:34:30.906Z,21.13
2023-02-11T15:35:30.787Z,21.17
2023-02-11T15:36:30.812Z,21.30
2023-02-11T15:37:31.041Z,21.01
2023-02-11T17:24:43.470Z,25.51
2023-02-11T17:32:23.054Z,26.67
2023-02-11T17:33:23.101Z,26.66
2023-02-11T17:34:22.605Z,26.71
2023-02-11T17:35:22.355Z,26.66
2023-02-11T17:37:43.401Z,28.59
2023-02-11T18:00:58.394Z,28.34
2023-02-11T18:09:42.001Z,28.30
2023-02-11T18:10:42.047Z,28.06
2023-02-11T18:11:41.992Z,27.90
2023-02-11T18:12:42.022Z,27.99
2023-02-11T18:13:41.964Z,29.34
2023-02-11T18:14:41.967Z,29.31
2023-02-11T18:15:41.988Z,28.86
2023-02-11T18:16:41.994Z,28.95
2023-02-11T18:17:41.946Z,30.02
2023-02-11T18:18:42.548Z,29.23
2023-02-11T18:19:41.919Z,28.98
2023-02-11T18:20:41.944Z,28.76
2023-02-11T19:00:40.388Z,32.06
2023-02-11T19:01:39.733Z,30.97
2023-02-11T19:03:59.198Z,30.07
2023-02-11T19:04:59.346Z,31.02
2023-02-11T19:05:59.103Z,31.56
2023-02-11T19:06:59.170Z,31.86
2023-02-11T19:07:59.086Z,31.03
2023-02-11T19:09:00.017Z,31.14
2023-02-11T19:09:59.056Z,32.16
2023-02-11T19:10:59.088Z,32.58
2023-02-11T19:39:19.602Z,31.56
2023-02-11T19:42:39.423Z,32.17
2023-02-11T19:43:39.321Z,32.78
2023-02-11T19:44:39.255Z,33.06
2023-02-11T19:45:39.179Z,32.85
2023-02-11T19:46:39.077Z,32.60
2023-02-11T19:55:40.500Z,32.05
2023-02-11T19:56:40.065Z,31.84
2023-02-11T19:59:41.388Z,31.92
2023-02-11T20:02:19.866Z,32.21
2023-02-11T20:03:19.052Z,32.61
2023-02-11T20:05:39.570Z,32.59
2023-02-11T20:06:39.845Z,32.37
2023-02-11T20:07:39.709Z,32.18
2023-02-11T20:08:38.631Z,31.95
2023-02-11T20:09:40.053Z,31.88
2023-02-11T20:10:38.742Z,31.71
2023-02-11T20:11:39.650Z,31.87
2023-02-11T20:12:39.567Z,31.55
2023-02-11T20:14:59.133Z,32.61
2023-02-11T20:17:19.364Z,32.48
2023-02-11T20:18:19.981Z,32.81
2023-02-11T20:19:19.236Z,32.83
2023-02-11T20:20:19.160Z,33.19
2023-02-11T20:21:19.818Z,33.44
2023-02-11T20:22:18.669Z,33.15
2023-02-11T20:23:18.844Z,33.62
2023-02-11T20:24:18.579Z,33.72
2023-02-11T20:25:18.836Z,34.16
2023-02-11T20:27:39.351Z,34.67
2023-02-11T20:28:39.392Z,34.68
2023-02-11T20:29:40.430Z,34.10
2023-02-11T20:30:38.741Z,34.48
2023-02-11T20:31:38.756Z,33.65
2023-02-11T20:32:38.783Z,33.12
2023-02-11T20:33:38.547Z,33.48
2023-02-11T20:34:38.564Z,33.37
2023-02-11T20:35:39.695Z,33.09
2023-02-11T20:36:38.580Z,33.06
2023-02-11T20:37:38.745Z,32.92
2023-02-11T21:32:04.066Z,34.82
2023-02-11T21:33:04.365Z,34.80
2023-02-11T21:34:04.016Z,34.37
2023-02-11T21:35:04.246Z,33.79
2023-02-11T21:36:03.916Z,33.67
2023-02-11T21:37:20.049Z,33.59
2023-02-11T21:38:03.849Z,33.61
2023-02-11T21:39:04.248Z,33.56
2023-02-11T21:40:04.593Z,33.73
2023-02-11T21:41:03.717Z,34.38
2023-02-11T21:42:03.675Z,33.94
2023-02-11T21:43:03.752Z,33.91
2023-02-11T21:44:03.651Z,34.18
2023-02-11T21:45:03.683Z,33.93
2023-02-11T21:46:03.685Z,33.60
2023-02-11T21:47:03.757Z,33.71
2023-02-11T21:48:03.841Z,33.78
2023-02-11T21:52:11.793Z,33.69
2023-02-11T21:53:11.292Z,33.74
2023-02-11T21:54:11.003Z,33.90
2023-02-11T21:55:11.469Z,34.21
2023-02-11T21:57:31.419Z,34.16
2023-02-11T21:58:31.123Z,33.93
2023-02-11T21:59:30.693Z,34.21
2023-02-11T22:00:30.323Z,34.32
2023-02-11T22:01:30.565Z,34.23
2023-02-11T22:02:30.355Z,34.08
2023-02-11T22:03:30.113Z,34.17
2023-02-11T22:04:31.274Z,34.78
2023-02-11T22:05:30.288Z,34.62
2023-02-11T22:06:30.304Z,34.48
2023-02-11T22:07:30.210Z,34.70
2023-02-11T22:08:30.404Z,34.43
2023-02-11T22:09:30.370Z,34.35
2023-02-11T22:10:30.154Z,34.22
2023-02-11T22:11:30.068Z,34.41
2023-02-11T22:12:30.168Z,34.27
2023-02-11T22:13:30.233Z,34.13
2023-02-11T22:14:32.265Z,34.59
2023-02-11T22:15:30.187Z,34.44
2023-02-11T22:16:30.229Z,34.51
2023-02-11T22:28:50.521Z,35.01
2023-02-11T22:29:50.785Z,35.11
2023-02-11T22:30:51.522Z,35.06
2023-02-11T22:31:50.838Z,34.98
2023-02-11T23:40:05.180Z,36.08
2023-02-11T23:41:05.471Z,35.97
2023-02-11T23:42:05.401Z,36.14
2023-02-11T23:43:05.017Z,36.00
2023-02-11T23:44:05.110Z,36.16
2023-02-11T23:45:07.500Z,36.24
2023-02-11T23:46:04.976Z,36.10
2023-02-11T23:47:04.942Z,36.33
2023-02-11T23:48:05.229Z,36.35
2023-02-11T23:49:04.926Z,36.36
2023-02-11T23:50:04.853Z,36.62
2023-02-11T23:51:04.842Z,36.37
2023-02-11T23:52:05.341Z,36.16
2023-02-11T23:53:05.136Z,36.35
2023-02-11T23:54:04.914Z,36.36
2023-02-11T23:55:06.506Z,36.42
2023-02-11T23:56:04.873Z,36.49
2023-02-11T23:57:05.062Z,36.67
2023-02-11T23:58:06.097Z,36.86
2023-02-11T23:59:20.785Z,36.75
